Time;durP1;ratioP1;P1;durP2;ratioP2;P2;SDS_P1;SDS_P2;PMS_P1;PMS_P2;Temp;Humidity;BMP_temperature;BMP_pressure;BME280_temperature;BME280_humidity;BME280_pressure;Samples;Min_cycle;Max_cycle;Signal;HPM_P1;HPM_P2
2022/03/13 00:01:13;;;;;;;;;1.00;1.00;;;;;18.22;47.56;101446.69;4895741;29;8846;-77
2022/03/13 00:03:39;;;;;;;;;1.00;0.75;;;;;18.21;47.49;101449.34;4896605;29;9371;-77
2022/03/13 00:06:04;;;;;;;;;1.00;1.00;;;;;18.20;47.41;101453.75;4896515;29;9508;-78
2022/03/13 00:08:32;;;;;;;;;0.50;0.50;;;;;18.18;47.28;101452.84;4896064;29;8833;-78
2022/03/13 00:11:07;;;;;;;;;1.00;1.00;;;;;18.13;47.61;101445.81;4896198;29;8833;-78
2022/03/13 00:13:40;;;;;;;;;0.75;0.75;;;;;18.20;47.69;101443.19;4896199;29;9610;-78
2022/03/13 00:16:10;;;;;;;;;1.25;1.25;;;;;18.21;47.35;101444.06;4896261;29;9532;-78
2022/03/13 00:18:41;;;;;;;;;2.25;1.25;;;;;18.21;47.29;101442.31;4896070;29;10113;-78
2022/03/13 00:21:09;;;;;;;;;1.00;1.00;;;;;18.20;47.17;101435.25;4895296;29;9786;-78
2022/03/13 00:23:34;;;;;;;;;0.00;0.00;;;;;18.19;47.43;101435.22;4896522;29;9624;-78
2022/03/13 00:26:01;;;;;;;;;1.50;1.50;;;;;18.18;47.43;101441.44;4896184;29;9440;-79
2022/03/13 00:28:27;;;;;;;;;1.75;1.50;;;;;18.19;47.40;101440.53;4895869;29;8806;-78
2022/03/13 00:30:55;;;;;;;;;2.00;2.00;;;;;18.19;47.10;101435.22;4896390;29;9522;-78
2022/03/13 00:33:20;;;;;;;;;1.00;1.00;;;;;18.15;47.43;101429.06;4896102;29;8807;-77
2022/03/13 00:35:46;;;;;;;;;1.00;0.00;;;;;18.16;47.31;101428.19;4894887;29;9540;-78
2022/03/13 00:38:11;;;;;;;;;1.00;1.00;;;;;18.16;47.09;101424.66;4912493;29;8839;-78
2022/03/13 00:40:37;;;;;;;;;1.00;1.00;;;;;18.15;47.08;101422.91;4914884;29;8996;-78
2022/03/13 00:43:03;;;;;;;;;1.50;1.50;;;;;18.13;47.10;101417.63;4914062;29;8800;-78
2022/03/13 00:45:29;;;;;;;;;0.50;0.50;;;;;18.13;47.05;101422.03;4915122;29;9513;-78
2022/03/13 00:47:54;;;;;;;;;1.25;0.00;;;;;18.16;47.15;101430.84;4914502;29;9525;-78
2022/03/13 00:50:20;;;;;;;;;1.00;1.00;;;;;18.16;47.00;101417.63;4913668;29;10349;-77
2022/03/13 00:52:46;;;;;;;;;1.00;1.00;;;;;18.14;47.10;101424.69;4914903;29;9628;-77
2022/03/13 00:55:12;;;;;;;;;1.00;1.00;;;;;18.15;47.05;101423.78;4914385;29;8816;-78
2022/03/13 00:57:37;;;;;;;;;1.00;1.00;;;;;18.13;46.92;101416.75;4913297;29;10400;-78
2022/03/13 01:00:04;;;;;;;;;1.00;1.00;;;;;18.14;47.06;101418.53;4914506;29;9572;-78
2022/03/13 01:02:30;;;;;;;;;0.00;0.00;;;;;18.12;46.97;101413.22;4914504;29;8854;-78
2022/03/13 01:04:55;;;;;;;;;0.75;0.75;;;;;18.12;46.81;101418.50;4913361;29;9574;-77
2022/03/13 01:07:21;;;;;;;;;1.00;1.00;;;;;18.12;46.96;101409.69;4914702;29;8843;-78
2022/03/13 01:09:46;;;;;;;;;1.25;1.25;;;;;18.13;46.76;101417.63;4914222;29;8804;-78
2022/03/13 01:12:11;;;;;;;;;1.00;1.00;;;;;18.13;47.01;101416.75;4913080;29;8843;-78
2022/03/13 01:14:37;;;;;;;;;1.25;1.25;;;;;18.14;46.88;101419.41;4914143;29;8804;-77
2022/03/13 01:17:08;;;;;;;;;2.00;2.00;;;;;18.15;46.93;101414.97;4912856;29;8828;-79
2022/03/13 01:19:33;;;;;;;;;0.25;0.25;;;;;18.13;46.82;101406.19;4913730;29;8816;-78
2022/03/13 01:21:59;;;;;;;;;2.00;1.00;;;;;18.09;46.63;101413.22;4913508;29;9669;-79
2022/03/13 01:24:33;;;;;;;;;1.00;1.00;;;;;18.09;46.67;101407.06;4913133;29;8824;-79
2022/03/13 01:27:01;;;;;;;;;0.25;0.25;;;;;18.11;46.62;101400.03;4913451;29;8839;-79
2022/03/13 01:29:32;;;;;;;;;1.75;0.25;;;;;18.09;47.00;101407.94;4914196;29;9696;-79
2022/03/13 01:31:57;;;;;;;;;0.00;0.00;;;;;18.09;46.67;101393.84;4913101;29;9577;-79
2022/03/13 01:34:35;;;;;;;;;0.00;0.00;;;;;18.14;46.91;101402.66;4914280;29;10389;-79
2022/03/13 01:37:05;;;;;;;;;0.00;0.00;;;;;18.10;46.57;101406.19;4910692;29;8852;-79
2022/03/13 01:39:31;;;;;;;;;0.75;0.75;;;;;18.09;46.51;101399.13;4913544;29;9582;-79
2022/03/13 01:41:56;;;;;;;;;2.00;1.00;;;;;18.08;46.53;101403.53;4913875;29;9568;-79
2022/03/13 01:44:21;;;;;;;;;0.25;0.25;;;;;18.10;46.62;101392.97;4914205;29;8805;-79
2022/03/13 01:46:47;;;;;;;;;1.00;1.00;;;;;18.10;46.42;101390.31;4912394;29;8824;-79
2022/03/13 01:49:13;;;;;;;;;1.00;1.00;;;;;18.10;46.22;101390.31;4913460;29;8812;-78
2022/03/13 01:51:39;;;;;;;;;0.00;0.00;;;;;18.10;46.22;101380.66;4913592;29;8954;-79
2022/03/13 01:54:08;;;;;;;;;0.00;0.00;;;;;18.08;46.61;101379.75;4912526;29;9602;-78
2022/03/13 01:56:35;;;;;;;;;1.00;1.00;;;;;18.08;46.36;101373.56;4913429;29;8828;-78
2022/03/13 01:59:00;;;;;;;;;1.00;1.00;;;;;18.09;46.18;101370.06;4913328;29;9426;-79
2022/03/13 02:01:27;;;;;;;;;1.25;1.25;;;;;18.06;46.35;101372.72;4912663;29;9539;-80
2022/03/13 02:03:53;;;;;;;;;1.00;1.00;;;;;18.06;46.67;101357.75;4913288;29;9600;-80
2022/03/13 02:06:26;;;;;;;;;0.00;0.00;;;;;18.08;46.20;101355.06;4912563;29;9530;-79
2022/03/13 02:08:53;;;;;;;;;0.00;0.00;;;;;18.04;46.35;101353.31;4913447;29;8808;-80
2022/03/13 02:11:21;;;;;;;;;0.00;0.00;;;;;18.08;46.34;101355.97;4912948;29;9541;-79
2022/03/13 02:13:50;;;;;;;;;1.00;0.75;;;;;18.08;46.31;101358.59;4912831;29;9530;-79
2022/03/13 02:16:17;;;;;;;;;0.00;0.00;;;;;18.06;46.20;101356.84;4913051;29;9501;-78
2022/03/13 02:18:48;;;;;;;;;2.00;1.00;;;;;18.07;46.39;101353.34;4913336;29;9343;-78
2022/03/13 02:21:16;;;;;;;;;3.00;1.25;;;;;18.07;46.51;101351.56;4912229;29;9446;-78
2022/03/13 02:23:41;;;;;;;;;0.00;0.00;;;;;18.06;46.32;101354.22;4913483;29;9431;-79
2022/03/13 02:26:07;;;;;;;;;0.25;0.00;;;;;18.04;46.17;101346.28;4912951;29;10099;-79
2022/03/13 02:28:35;;;;;;;;;2.33;2.33;;;;;18.03;46.07;101344.53;4913097;29;8808;-79
2022/03/13 02:31:18;;;;;;;;;0.00;0.00;;;;;18.02;46.02;101344.53;4913789;29;8831;-79
2022/03/13 02:33:43;;;;;;;;;1.00;1.00;;;;;18.06;46.11;101333.97;4913476;29;9528;-78
2022/03/13 02:36:31;;;;;;;;;0.67;0.67;;;;;18.03;46.27;101333.09;4911011;29;9404;-78
2022/03/13 02:38:58;;;;;;;;;1.00;1.00;;;;;18.04;46.13;101329.53;4867082;29;8839;-78
2022/03/13 02:41:26;;;;;;;;;1.00;1.00;;;;;18.02;46.24;101323.38;4893392;29;9313;-79
2022/03/13 02:43:56;;;;;;;;;1.00;1.00;;;;;18.01;46.10;101325.16;4893990;29;9626;-79
2022/03/13 02:46:23;;;;;;;;;1.00;1.00;;;;;18.02;46.04;101318.09;4893851;29;9290;-78
2022/03/13 02:48:50;;;;;;;;;0.00;0.00;;;;;18.02;46.33;101307.53;4893453;29;9712;-78
2022/03/13 02:51:16;;;;;;;;;0.50;0.00;;;;;18.02;46.12;101312.81;4893760;29;9386;-78
2022/03/13 02:53:42;;;;;;;;;0.00;0.00;;;;;18.03;46.06;101310.19;4894068;29;9460;-79
2022/03/13 02:56:07;;;;;;;;;1.33;1.00;;;;;18.03;46.06;101310.19;4892872;29;10206;-79
2022/03/13 02:58:34;;;;;;;;;0.00;0.00;;;;;18.01;46.04;101308.41;4896217;29;9579;-79
2022/03/13 03:00:59;;;;;;;;;1.00;1.00;;;;;18.02;45.95;101307.53;4897060;29;8826;-79
2022/03/13 03:03:26;;;;;;;;;0.00;0.00;;;;;18.01;46.14;101311.06;4896620;29;10183;-79
2022/03/13 03:05:52;;;;;;;;;2.00;1.00;;;;;18.00;46.04;101310.16;4897599;29;8906;-79
2022/03/13 03:08:17;;;;;;;;;1.00;1.00;;;;;18.00;46.09;101306.66;4897088;29;9483;-78
2022/03/13 03:10:43;;;;;;;;;0.75;0.75;;;;;18.01;46.02;101311.94;4896758;29;9571;-79
2022/03/13 03:13:10;;;;;;;;;1.00;1.00;;;;;18.02;45.82;101310.19;4896709;29;8842;-79
2022/03/13 03:15:36;;;;;;;;;1.00;1.00;;;;;17.98;46.15;101309.31;4897430;29;8822;-80
2022/03/13 03:18:06;;;;;;;;;1.33;0.00;;;;;18.00;45.81;101317.22;4896142;29;9399;-80
2022/03/13 03:20:32;;;;;;;;;0.00;0.00;;;;;18.01;46.21;101318.97;4897456;29;8815;-79
2022/03/13 03:22:58;;;;;;;;;1.00;1.00;;;;;17.94;45.69;101312.84;4898014;29;9547;-78
2022/03/13 03:25:26;;;;;;;;;0.50;0.50;;;;;18.00;46.22;101317.22;4896703;29;8825;-78
2022/03/13 03:27:53;;;;;;;;;1.00;0.00;;;;;18.01;46.04;101324.25;4897194;29;8807;-79
2022/03/13 03:30:23;;;;;;;;;0.50;0.50;;;;;18.03;45.77;101317.22;4896347;29;10112;-78
2022/03/13 03:32:50;;;;;;;;;0.00;0.00;;;;;18.02;45.61;101316.34;4896044;29;9451;-78
2022/03/13 03:35:20;;;;;;;;;1.00;1.00;;;;;17.99;45.75;101316.34;4896913;29;9502;-78
2022/03/13 03:37:46;;;;;;;;;0.00;0.00;;;;;17.96;45.90;101321.63;4898738;29;10429;-79
2022/03/13 03:40:12;;;;;;;;;1.00;1.00;;;;;18.01;45.68;101325.16;4896570;29;9452;-78
2022/03/13 03:42:38;;;;;;;;;1.75;1.75;;;;;18.01;45.93;101321.63;4896964;29;9394;-78
2022/03/13 03:45:04;;;;;;;;;1.00;1.00;;;;;18.04;45.80;101330.44;4895874;29;8807;-79
2022/03/13 03:47:30;;;;;;;;;0.25;0.25;;;;;17.97;45.84;101325.16;4896510;29;9459;-78
2022/03/13 03:49:55;;;;;;;;;1.75;1.75;;;;;17.98;45.85;101334.84;4896693;29;9488;-78
2022/03/13 03:52:20;;;;;;;;;1.50;0.25;;;;;17.97;45.70;101331.31;4895931;29;8811;-77
2022/03/13 03:54:46;;;;;;;;;1.00;1.00;;;;;17.96;45.88;101331.34;4896712;29;8811;-78
2022/03/13 03:57:11;;;;;;;;;1.00;1.00;;;;;17.96;45.81;101326.91;4896181;29;8922;-77
2022/03/13 03:59:37;;;;;;;;;1.00;1.00;;;;;17.98;45.56;101329.56;4895647;29;8825;-78
2022/03/13 04:02:04;;;;;;;;;0.00;0.00;;;;;17.99;45.73;101334.84;4896107;29;8844;-80
2022/03/13 04:04:29;;;;;;;;;0.00;0.00;;;;;17.97;45.74;101326.03;4897027;29;8819;-80
2022/03/13 04:06:55;;;;;;;;;1.00;1.00;;;;;17.96;45.73;101331.34;4895851;29;9389;-80
2022/03/13 04:09:20;;;;;;;;;1.00;0.67;;;;;17.98;45.80;101327.81;4895353;29;9281;-79
2022/03/13 04:11:48;;;;;;;;;0.00;0.00;;;;;17.97;45.90;101328.66;4896429;29;8835;-78
2022/03/13 04:14:14;;;;;;;;;0.00;0.00;;;;;17.94;45.74;101326.03;4896262;29;8807;-79
2022/03/13 04:16:41;;;;;;;;;1.00;1.00;;;;;17.96;45.99;101334.84;4896533;29;9442;-78
2022/03/13 04:19:09;;;;;;;;;0.00;0.00;;;;;17.93;45.60;101319.00;4896068;29;9354;-78
2022/03/13 04:21:35;;;;;;;;;0.00;0.00;;;;;18.00;45.58;101331.31;4895475;29;9379;-79
2022/03/13 04:24:03;;;;;;;;;0.00;0.00;;;;;17.99;45.67;101328.69;4895826;29;9355;-79
2022/03/13 04:26:29;;;;;;;;;0.75;0.75;;;;;17.99;45.90;101323.41;4896056;29;8811;-79
2022/03/13 04:28:54;;;;;;;;;1.50;1.00;;;;;18.00;45.75;101319.84;4895167;29;9623;-79
2022/03/13 04:31:20;;;;;;;;;1.00;1.00;;;;;17.97;45.54;101309.28;4895671;29;8811;-79
2022/03/13 04:33:45;;;;;;;;;0.00;0.00;;;;;17.95;45.58;101321.63;4895890;29;8827;-78
2022/03/13 04:36:13;;;;;;;;;1.50;1.00;;;;;17.92;45.91;101319.84;4895927;29;8827;-78
2022/03/13 04:38:40;;;;;;;;;1.50;0.50;;;;;17.95;45.82;101322.53;4897126;29;8925;-78
2022/03/13 04:41:05;;;;;;;;;0.00;0.00;;;;;17.99;45.50;101321.66;4894629;29;9527;-79
2022/03/13 04:43:31;;;;;;;;;1.00;1.00;;;;;17.95;45.86;101324.28;4895942;29;9298;-78
2022/03/13 04:45:56;;;;;;;;;2.00;1.00;;;;;17.93;45.78;101319.00;4895376;29;8826;-78
2022/03/13 04:48:22;;;;;;;;;0.67;0.67;;;;;17.95;45.65;101309.31;4895143;29;9613;-79
2022/03/13 04:50:47;;;;;;;;;0.75;0.75;;;;;17.95;45.62;101316.34;4895555;29;8863;-79
2022/03/13 04:53:13;;;;;;;;;1.00;1.00;;;;;17.95;45.54;101317.25;4895444;29;8827;-80
2022/03/13 04:55:39;;;;;;;;;0.00;0.00;;;;;17.95;45.66;101322.53;4895377;29;8936;-78
2022/03/13 04:58:05;;;;;;;;;1.00;1.00;;;;;17.96;45.72;101316.34;4895522;29;9730;-79
2022/03/13 05:00:31;;;;;;;;;2.00;0.67;;;;;17.96;45.73;101315.47;4895647;29;8909;-78
2022/03/13 05:02:56;;;;;;;;;1.00;1.00;;;;;17.94;45.77;101315.47;4894915;29;8865;-79
2022/03/13 05:05:22;;;;;;;;;1.00;1.00;;;;;17.91;45.73;101309.31;4895521;29;9293;-78
2022/03/13 05:07:49;;;;;;;;;1.00;1.00;;;;;17.97;45.58;101319.88;4896048;29;8889;-78
2022/03/13 05:10:15;;;;;;;;;1.00;1.00;;;;;17.93;45.52;101312.81;4894700;29;10124;-78
2022/03/13 05:12:41;;;;;;;;;0.50;0.50;;;;;17.93;45.57;101307.53;4895052;29;9377;-79
2022/03/13 05:15:07;;;;;;;;;0.00;0.00;;;;;17.96;45.48;101313.69;4894556;29;8822;-79
2022/03/13 05:17:32;;;;;;;;;1.00;1.00;;;;;17.94;45.65;101307.53;4894429;29;9484;-79
2022/03/13 05:19:58;;;;;;;;;2.00;0.50;;;;;17.94;45.32;101304.91;4894783;29;8807;-78
2022/03/13 05:22:23;;;;;;;;;1.00;1.00;;;;;17.92;45.54;101301.38;4895063;29;8811;-79
2022/03/13 05:24:48;;;;;;;;;0.00;0.00;;;;;17.93;45.57;101299.63;4894415;29;8838;-78
2022/03/13 05:27:14;;;;;;;;;0.25;0.25;;;;;17.93;45.59;101312.81;4894820;29;8825;-78
2022/03/13 05:29:39;;;;;;;;;1.00;1.00;;;;;17.93;45.40;101316.34;4894986;29;8827;-78
2022/03/13 05:32:05;;;;;;;;;0.00;0.00;;;;;17.90;45.48;101313.72;4894288;29;8941;-81
2022/03/13 05:34:30;;;;;;;;;3.00;2.00;;;;;17.91;45.93;101314.59;4894896;29;8827;-78
2022/03/13 05:36:55;;;;;;;;;1.00;1.00;;;;;17.91;45.55;101322.53;4898029;29;8878;-79
2022/03/13 05:39:21;;;;;;;;;0.75;0.50;;;;;17.91;45.96;101317.25;4894676;29;8810;-79
2022/03/13 05:41:47;;;;;;;;;2.00;2.00;;;;;17.89;46.04;101319.88;4894850;29;8815;-78
2022/03/13 05:44:12;;;;;;;;;0.75;0.75;;;;;17.86;45.94;101319.88;4893604;29;8798;-78
2022/03/13 05:46:38;;;;;;;;;1.00;1.00;;;;;17.90;45.99;101319.00;4895082;29;8804;-78
2022/03/13 05:49:04;;;;;;;;;0.67;0.00;;;;;17.86;45.84;101318.13;4894588;29;11552;-78
2022/03/13 05:51:35;;;;;;;;;1.00;0.25;;;;;17.90;45.81;101321.63;4894170;29;8799;-78
2022/03/13 05:54:01;;;;;;;;;1.00;1.00;;;;;17.88;46.24;101322.53;4894754;29;8850;-79
2022/03/13 05:56:26;;;;;;;;;1.67;1.67;;;;;17.88;46.14;101313.69;4895113;29;9487;-78
2022/03/13 05:58:54;;;;;;;;;1.00;1.00;;;;;17.88;46.08;101315.50;4894054;29;8823;-79
2022/03/13 06:01:19;;;;;;;;;0.25;0.25;;;;;17.92;46.30;101313.72;4894274;29;8869;-79
2022/03/13 06:03:44;;;;;;;;;2.25;1.00;;;;;17.86;46.06;101315.47;4894472;29;10180;-79
2022/03/13 06:06:10;;;;;;;;;2.75;1.00;;;;;17.86;46.00;101318.13;4893640;29;8871;-79
2022/03/13 06:08:36;;;;;;;;;0.75;0.75;;;;;17.91;45.99;101317.25;4894315;29;8823;-79
2022/03/13 06:11:08;;;;;;;;;2.50;1.00;;;;;17.85;45.98;101315.47;4894411;29;8814;-79
2022/03/13 06:13:34;;;;;;;;;3.50;3.00;;;;;17.86;45.91;101318.13;4893519;29;9516;-78
2022/03/13 06:15:59;;;;;;;;;1.00;1.00;;;;;17.86;45.91;101309.31;4894630;29;9607;-79
2022/03/13 06:18:27;;;;;;;;;1.00;1.00;;;;;17.85;46.10;101312.81;4895243;29;9558;-79
2022/03/13 06:20:52;;;;;;;;;2.00;1.00;;;;;17.85;45.91;101318.09;4894604;29;8806;-79
2022/03/13 06:23:18;;;;;;;;;1.50;1.00;;;;;17.90;46.01;101312.81;4894340;29;9725;-79
2022/03/13 06:25:43;;;;;;;;;1.00;1.00;;;;;17.84;45.95;101317.25;4894323;29;8918;-80
2022/03/13 06:28:12;;;;;;;;;1.00;1.00;;;;;17.86;46.05;101309.31;4893624;29;8839;-80
2022/03/13 06:30:38;;;;;;;;;1.25;0.25;;;;;17.84;45.82;101313.72;4894384;29;8957;-80
2022/03/13 06:33:04;;;;;;;;;1.00;1.00;;;;;17.88;45.71;101317.25;4896178;29;9544;-79
2022/03/13 06:35:29;;;;;;;;;1.25;1.00;;;;;17.86;46.04;101312.84;4898026;29;8865;-78
2022/03/13 06:37:55;;;;;;;;;1.00;1.00;;;;;17.84;45.65;101311.97;4901255;29;9646;-77
2022/03/13 06:40:23;;;;;;;;;0.75;0.75;;;;;17.84;45.93;101317.25;4897919;29;10006;-79
2022/03/13 06:42:51;;;;;;;;;2.00;2.00;;;;;17.85;45.95;101316.34;4897780;29;8854;-79
2022/03/13 06:45:17;;;;;;;;;1.00;1.00;;;;;17.83;45.76;101314.59;4897681;29;9834;-79
2022/03/13 06:47:45;;;;;;;;;0.75;0.75;;;;;17.83;45.90;101310.22;4897099;29;10378;-78
2022/03/13 06:50:13;;;;;;;;;1.00;1.00;;;;;17.82;45.69;101308.44;4897346;29;9383;-80
2022/03/13 06:52:39;;;;;;;;;1.50;1.50;;;;;17.83;45.94;101318.13;4897514;29;9717;-79
2022/03/13 06:55:04;;;;;;;;;1.00;1.00;;;;;17.83;45.94;101319.88;4896881;29;10446;-79
2022/03/13 06:57:30;;;;;;;;;2.00;2.00;;;;;17.86;45.94;101314.59;4898031;29;8877;-79
2022/03/13 06:59:57;;;;;;;;;1.50;1.50;;;;;17.86;45.84;101312.84;4897440;29;8851;-80
2022/03/13 07:02:23;;;;;;;;;3.00;3.00;;;;;17.89;45.68;101325.16;4896858;29;8965;-79
2022/03/13 07:04:49;;;;;;;;;2.00;2.00;;;;;17.93;45.51;101331.31;4897428;29;9718;-78
2022/03/13 07:07:14;;;;;;;;;2.00;2.00;;;;;17.98;45.47;101319.00;4897163;29;9053;-79
2022/03/13 07:09:39;;;;;;;;;0.00;0.00;;;;;17.98;45.22;101326.91;4896793;29;8807;-79
2022/03/13 07:12:11;;;;;;;;;2.50;2.25;;;;;17.97;45.63;101328.66;4896807;29;8815;-79
2022/03/13 07:14:44;;;;;;;;;2.00;1.00;;;;;18.01;46.31;101332.19;4897478;29;8799;-78
2022/03/13 07:17:09;;;;;;;;;2.00;2.00;;;;;17.98;45.75;101340.13;4896092;29;9720;-79
2022/03/13 07:19:34;;;;;;;;;3.00;2.00;;;;;17.96;45.71;101321.63;4897182;29;9697;-79
2022/03/13 07:22:00;;;;;;;;;2.50;2.50;;;;;17.95;45.67;101324.28;4897044;29;9563;-80
2022/03/13 07:24:25;;;;;;;;;2.50;2.50;;;;;17.98;45.85;101330.44;4896792;29;8950;-80
2022/03/13 07:26:50;;;;;;;;;4.00;2.75;;;;;17.98;45.62;101326.91;4897084;29;8835;-79
2022/03/13 07:29:16;;;;;;;;;2.00;2.00;;;;;17.96;45.77;101324.25;4896757;29;8823;-80
2022/03/13 07:31:41;;;;;;;;;3.75;3.00;;;;;17.95;45.84;101322.53;4895928;29;8818;-79
2022/03/13 07:34:06;;;;;;;;;2.75;2.75;;;;;17.98;45.85;101332.19;4897043;29;8899;-80
2022/03/13 07:36:34;;;;;;;;;2.50;2.50;;;;;17.97;45.70;101328.66;4900391;29;8832;-79
2022/03/13 07:39:00;;;;;;;;;2.00;2.00;;;;;17.98;45.79;101340.13;4896450;29;8976;-79
2022/03/13 07:41:26;;;;;;;;;2.00;2.00;;;;;17.97;45.61;101335.72;4897369;29;9698;-81
2022/03/13 07:43:51;;;;;;;;;4.50;3.00;;;;;17.97;45.70;101336.59;4896027;29;8810;-79
2022/03/13 07:46:16;;;;;;;;;3.75;3.75;;;;;17.95;45.75;101338.38;4896320;29;8965;-78
2022/03/13 07:48:45;;;;;;;;;4.00;3.00;;;;;17.94;45.72;101331.31;4896777;29;8821;-79
2022/03/13 07:51:12;;;;;;;;;5.50;4.50;;;;;17.93;45.67;101328.66;4895453;29;8798;-78
2022/03/13 07:53:37;;;;;;;;;4.00;2.00;;;;;17.92;45.89;101333.06;4897148;29;9677;-80
2022/03/13 07:56:03;;;;;;;;;2.00;2.00;;;;;17.96;45.97;101326.91;4896747;29;9955;-79
2022/03/13 07:58:28;;;;;;;;;3.75;3.75;;;;;17.96;45.61;101320.78;4896246;29;8825;-80
2022/03/13 08:00:54;;;;;;;;;3.25;3.25;;;;;17.95;45.79;101321.63;4897002;29;8843;-79
2022/03/13 08:03:24;;;;;;;;;2.50;2.25;;;;;17.95;45.70;101319.88;4896800;29;8795;-79
2022/03/13 08:05:49;;;;;;;;;3.00;3.00;;;;;17.96;45.92;101323.41;4897019;29;8813;-81
2022/03/13 08:08:14;;;;;;;;;1.00;1.00;;;;;17.98;46.39;101311.94;4898011;29;10048;-79
2022/03/13 08:10:40;;;;;;;;;2.00;2.00;;;;;17.98;46.02;101311.94;4896790;29;8802;-78
2022/03/13 08:13:05;;;;;;;;;3.25;3.25;;;;;17.98;45.94;101313.72;4895641;29;8827;-79
2022/03/13 08:15:30;;;;;;;;;0.00;0.00;;;;;17.96;45.96;101305.78;4896459;29;8845;-78
2022/03/13 08:17:56;;;;;;;;;3.00;3.00;;;;;17.96;46.25;101315.47;4896024;29;9001;-78
2022/03/13 08:20:21;;;;;;;;;5.75;3.25;;;;;17.96;46.18;101302.28;4895553;29;8826;-79
2022/03/13 08:22:46;;;;;;;;;2.50;2.50;;;;;17.96;46.54;101307.56;4896245;29;8799;-78
2022/03/13 08:25:18;;;;;;;;;3.00;2.00;;;;;17.96;46.25;101308.41;4896106;29;9654;-79
2022/03/13 08:27:43;;;;;;;;;4.00;4.00;;;;;17.98;46.15;101305.78;4895721;29;9006;-79
2022/03/13 08:30:13;;;;;;;;;3.00;3.00;;;;;17.97;46.60;101317.22;4895685;29;9750;-79
2022/03/13 08:32:41;;;;;;;;;3.25;3.25;;;;;18.00;46.58;101314.56;4894785;29;8827;-78
2022/03/13 08:35:07;;;;;;;;;3.00;3.00;;;;;17.96;46.25;101311.06;4893849;29;9801;-78
2022/03/13 08:37:33;;;;;;;;;3.50;3.50;;;;;17.96;46.66;101318.13;4907354;29;10273;-78
2022/03/13 08:39:58;;;;;;;;;3.00;3.00;;;;;17.95;46.30;101317.25;4913986;29;9677;-78
2022/03/13 08:42:23;;;;;;;;;4.75;4.00;;;;;17.98;46.56;101313.72;4911023;29;8848;-78
2022/03/13 08:44:49;;;;;;;;;5.00;4.00;;;;;17.98;46.33;101311.06;4914080;29;9541;-80
2022/03/13 08:47:14;;;;;;;;;3.00;3.00;;;;;17.98;46.40;101305.78;4913050;29;8843;-79
2022/03/13 08:49:39;;;;;;;;;4.25;4.25;;;;;17.99;46.02;101307.56;4914174;29;8816;-79
2022/03/13 08:52:05;;;;;;;;;3.50;3.00;;;;;17.99;46.09;101291.69;4903276;29;9655;-79
2022/03/13 08:54:34;;;;;;;;;4.00;4.00;;;;;18.01;46.20;101295.19;4894806;29;8818;-79
2022/03/13 08:56:59;;;;;;;;;4.50;4.50;;;;;18.02;46.41;101286.41;4894913;29;8847;-78
2022/03/13 08:59:24;;;;;;;;;3.00;3.00;;;;;18.05;45.92;101299.59;4895628;29;9595;-79
2022/03/13 09:01:50;;;;;;;;;4.75;4.75;;;;;18.04;45.98;101293.44;4899085;29;8971;-79
2022/03/13 09:04:15;;;;;;;;;3.00;3.00;;;;;18.05;46.11;101291.69;4913649;29;8879;-78
2022/03/13 09:06:43;;;;;;;;;4.00;3.50;;;;;18.07;46.30;101298.72;4913940;29;8831;-79
2022/03/13 09:09:11;;;;;;;;;6.00;4.00;;;;;18.06;46.08;101291.69;4913106;29;8828;-78
2022/03/13 09:11:39;;;;;;;;;3.50;3.25;;;;;18.11;46.41;101299.59;4912044;29;10559;-79
2022/03/13 09:14:05;;;;;;;;;4.00;4.00;;;;;18.07;46.33;101295.22;4912508;29;9617;-79
2022/03/13 09:16:35;;;;;;;;;5.75;5.75;;;;;18.11;45.79;101284.59;4913026;29;10002;-79
2022/03/13 09:19:01;;;;;;;;;4.00;4.00;;;;;18.09;46.24;101290.78;4913926;29;8820;-79
2022/03/13 09:21:26;;;;;;;;;5.00;3.75;;;;;18.12;46.04;101296.06;4912334;29;9551;-78
2022/03/13 09:23:51;;;;;;;;;7.25;4.25;;;;;18.13;46.02;101297.81;4913566;29;8792;-79
2022/03/13 09:26:17;;;;;;;;;4.00;4.00;;;;;18.14;46.30;101297.84;4913813;29;8879;-80
2022/03/13 09:28:42;;;;;;;;;4.00;4.00;;;;;18.18;46.14;101296.06;4913880;29;8824;-80
2022/03/13 09:31:09;;;;;;;;;4.00;4.00;;;;;18.20;46.09;101287.25;4911241;29;9619;-79
2022/03/13 09:33:34;;;;;;;;;5.00;4.75;;;;;18.21;45.95;101293.41;4913762;29;8788;-80
2022/03/13 09:36:00;;;;;;;;;4.00;4.00;;;;;18.25;45.82;101297.81;4913773;29;9731;-80
2022/03/13 09:38:25;;;;;;;;;5.50;5.00;;;;;18.21;45.95;101298.69;4909690;29;8951;-81
2022/03/13 09:40:50;;;;;;;;;5.50;4.50;;;;;18.23;46.14;101303.09;4913911;29;8926;-82
2022/03/13 09:43:18;;;;;;;;;2.75;2.75;;;;;18.29;45.95;101304.84;4910893;29;8844;-79
2022/03/13 09:45:44;;;;;;;;;4.00;4.00;;;;;18.25;45.82;101301.34;4913305;29;8804;-79
2022/03/13 09:48:09;;;;;;;;;6.00;5.75;;;;;18.28;46.13;101313.66;4914750;29;9710;-80
2022/03/13 09:50:35;;;;;;;;;5.00;5.00;;;;;18.29;46.17;101305.72;4914093;29;8824;-79
2022/03/13 09:53:00;;;;;;;;;5.00;5.00;;;;;18.30;46.31;101303.94;4896317;29;8831;-79
2022/03/13 09:55:27;;;;;;;;;5.00;5.00;;;;;18.31;45.84;101301.31;4907947;29;8829;-78
2022/03/13 09:57:53;;;;;;;;;5.25;5.25;;;;;18.38;46.06;101296.88;4913265;29;8836;-78
2022/03/13 10:00:24;;;;;;;;;6.25;6.25;;;;;18.51;46.73;101296.00;4913237;29;9673;-79
2022/03/13 10:02:53;;;;;;;;;4.75;4.75;;;;;18.62;47.81;101301.25;4913708;29;9784;-79
2022/03/13 10:05:20;;;;;;;;;4.00;4.00;;;;;18.73;51.28;101299.44;4912909;29;9756;-79
2022/03/13 10:07:55;;;;;;;;;5.00;5.00;;;;;18.77;51.14;101291.47;4914676;29;9826;-79
2022/03/13 10:10:28;;;;;;;;;8.25;8.25;;;;;18.87;51.89;101307.28;4917661;29;9714;-80
2022/03/13 10:12:54;;;;;;;;;8.75;5.75;;;;;18.89;54.93;101287.88;4916864;29;9946;-86
2022/03/13 10:15:25;;;;;;;;;18.00;17.00;;;;;18.90;53.39;101292.28;4918164;29;9670;-84
2022/03/13 10:17:51;;;;;;;;;11.75;11.75;;;;;18.79;53.39;101289.69;4917628;29;8891;-82
2022/03/13 10:20:27;;;;;;;;;13.25;13.25;;;;;18.71;53.12;101291.47;4916518;29;9789;-83
2022/03/13 10:23:02;;;;;;;;;10.25;10.25;;;;;18.68;52.14;101280.03;4918264;29;8860;-83
2022/03/13 10:25:30;;;;;;;;;13.25;13.25;;;;;18.70;50.50;101284.47;4911335;29;10749;-81
2022/03/13 10:28:12;;;;;;;;;18.50;18.50;;;;;18.71;49.12;101285.31;4898640;29;9917;-81
2022/03/13 10:30:37;;;;;;;;;14.00;14.00;;;;;18.82;47.49;101289.66;4899015;29;10257;-81
2022/03/13 10:33:03;;;;;;;;;17.75;17.00;;;;;18.90;47.02;101288.75;4908176;29;10132;-82
2022/03/13 10:35:28;;;;;;;;;13.00;12.00;;;;;18.78;48.20;101281.78;4917962;29;8821;-82
2022/03/13 10:37:55;;;;;;;;;11.25;10.75;;;;;18.85;46.89;101286.16;4908114;29;8831;-82
2022/03/13 10:40:22;;;;;;;;;15.50;14.00;;;;;18.77;46.95;101280.91;4900195;29;8803;-83
2022/03/13 10:42:49;;;;;;;;;16.00;14.50;;;;;18.75;46.17;101285.28;4898296;29;10070;-82
2022/03/13 10:45:36;;;;;;;;;13.00;13.00;;;;;18.76;45.31;101280.88;4897244;29;10099;-83
2022/03/13 10:48:15;;;;;;;;;12.50;11.75;;;;;18.82;45.10;101280.84;4897306;29;10185;-82
2022/03/13 10:50:44;;;;;;;;;14.00;14.00;;;;;18.80;44.33;101278.22;4902775;29;10145;-81
2022/03/13 10:53:12;;;;;;;;;15.25;13.00;;;;;18.80;44.30;101278.22;4911351;29;10218;-82
2022/03/13 10:55:37;;;;;;;;;13.75;12.75;;;;;18.86;44.23;101268.50;4896897;29;10041;-82
2022/03/13 10:58:02;;;;;;;;;14.00;13.00;;;;;18.86;44.13;101271.16;4897501;29;10069;-82
2022/03/13 11:00:28;;;;;;;;;16.75;14.00;;;;;18.86;43.81;101277.28;4897714;29;8799;-81
2022/03/13 11:03:08;;;;;;;;;11.75;11.75;;;;;18.90;44.01;101278.16;4895535;29;8925;-81
2022/03/13 11:05:34;;;;;;;;;8.75;8.75;;;;;18.95;43.96;101271.09;4897671;29;8814;-81
2022/03/13 11:07:59;;;;;;;;;13.50;13.50;;;;;18.92;43.44;101261.41;4896932;29;10107;-80
2022/03/13 11:10:24;;;;;;;;;11.50;11.00;;;;;19.03;42.76;101254.28;4897449;29;10281;-79
2022/03/13 11:12:51;;;;;;;;;14.25;14.25;;;;;19.05;43.10;101248.97;4896186;29;8815;-80
2022/03/13 11:15:16;;;;;;;;;11.00;11.00;;;;;19.10;42.62;101249.81;4896587;29;8894;-83
2022/03/13 11:17:43;;;;;;;;;14.75;13.75;;;;;19.04;42.63;101244.56;4896835;29;10156;-81
2022/03/13 11:20:09;;;;;;;;;12.00;11.50;;;;;19.01;42.72;101249.91;4897063;29;9546;-82
2022/03/13 11:22:35;;;;;;;;;14.00;12.50;;;;;19.02;42.53;101254.28;4897805;29;10130;-82
2022/03/13 11:25:04;;;;;;;;;15.25;13.00;;;;;19.04;42.59;101249.88;4897610;29;8834;-79
2022/03/13 11:27:30;;;;;;;;;15.25;13.75;;;;;18.94;42.32;101251.69;4898493;29;10052;-80
2022/03/13 11:29:57;;;;;;;;;15.75;13.00;;;;;18.97;42.85;101256.09;4902673;29;10191;-82